| time (UTC) | temp F | wind direction | speed MPH | gust MPH | rain 1hr in | rain 24hr in | rain mn in | humidity % | barometer mb |
| 20260906014036 | 58 | 225 | 0.0 | 1.0 | 0.00 | 0.23 | 0.00 | 99 | 1016.6 |
| 20260906013043 | 58 | 255 | 0.0 | 1.0 | 0.00 | 0.23 | 0.00 | 99 | 1016.6 |
| 20260906012051 | 57 | 270 | 0.0 | 1.0 | 0.00 | 0.24 | 0.00 | 99 | 1016.5 |
| 20260906011059 | 57 | 180 | 0.0 | 1.0 | 0.00 | 0.24 | 0.00 | 99 | 1016.5 |
| 20260906010107 | 57 | 45 | 0.0 | 2.0 | 0.00 | 0.24 | 0.00 | 99 | 1016.4 |
| 20260906005115 | 57 | 45 | 0.0 | 0.0 | 0.00 | 0.24 | 0.00 | 99 | 1016.3 |
| 20260906004019 | 57 | 0.0 | 0.0 | 0.00 | 0.24 | 0.00 | 99 | 1016.2 | |
| 20260906003025 | 57 | 194 | 0.0 | 1.0 | 0.00 | 0.24 | 0.00 | 99 | 1016.2 |
| 20260906002033 | 57 | 0.0 | 0.0 | 0.00 | 0.24 | 0.00 | 99 | 1016.3 | |
| 20260906001041 | 57 | 0.0 | 0.0 | 0.00 | 0.24 | 0.00 | 99 | 1016.2 | |
| 20260905235057 | 58 | 225 | 0.0 | 1.0 | 0.00 | 0.24 | 0.00 | 99 | 1016.0 |
| 20260905234105 | 58 | 0.0 | 0.0 | 0.00 | 0.24 | 0.00 | 99 | 1016.0 | |
| 20260905233113 | 58 | 0.0 | 0.0 | 0.00 | 0.24 | 0.00 | 99 | 1016.0 | |
| 20260905232120 | 58 | 0.0 | 0.0 | 0.00 | 0.24 | 0.00 | 99 | 1016.0 | |
| 20260905231607 | 58 | 0.0 | 0.0 | 0.00 | 0.24 | 0.00 | 99 | 1015.8 | |
| 20260905230246 | 58 | 0.0 | 0.0 | 0.00 | 0.24 | 0.00 | 99 | 1015.8 | |
| 20260905224047 | 58 | 0.0 | 0.0 | 0.00 | 0.24 | 0.00 | 99 | 1015.9 | |
| 20260905223054 | 58 | 180 | 0.0 | 1.0 | 0.00 | 0.24 | 0.00 | 99 | 1015.8 |
| 20260905222102 | 59 | 297 | 0.0 | 1.0 | 0.00 | 0.24 | 0.00 | 99 | 1015.7 |
| 20260905221109 | 59 | 0.0 | 0.0 | 0.00 | 0.24 | 0.00 | 99 | 1015.6 | |
| 20260905220118 | 59 | 0.0 | 0.0 | 0.00 | 0.24 | 0.00 | 99 | 1015.6 | |
| 20260905215020 | 59 | 0.0 | 0.0 | 0.00 | 0.24 | 0.24 | 99 | 1015.6 | |
| 20260905214028 | 59 | 240 | 1.0 | 2.0 | 0.00 | 0.24 | 0.24 | 99 | 1015.4 |
| 20260905213035 | 59 | 0.0 | 0.0 | 0.00 | 0.24 | 0.24 | 99 | 1015.4 | |
| 20260905212044 | 59 | 187 | 0.0 | 2.0 | 0.00 | 0.24 | 0.24 | 99 | 1015.4 |
| 20260905211051 | 60 | 0.0 | 0.0 | 0.00 | 0.24 | 0.24 | 99 | 1015.4 | |
| 20260905210059 | 60 | 0.0 | 0.0 | 0.00 | 0.24 | 0.24 | 99 | 1015.2 | |
| 20260905205107 | 60 | 0.0 | 0.0 | 0.00 | 0.24 | 0.24 | 99 | 1015.3 | |
| 20260905204115 | 60 | 0.0 | 0.0 | 0.00 | 0.24 | 0.24 | 99 | 1015.0 | |
| 20260905203019 | 60 | 315 | 0.0 | 1.0 | 0.00 | 0.24 | 0.24 | 99 | 1014.8 |
| 20260905202026 | 60 | 0.0 | 0.0 | 0.00 | 0.24 | 0.24 | 99 | 1014.9 | |
| 20260905201033 | 60 | 0.0 | 0.0 | 0.00 | 0.24 | 0.24 | 99 | 1014.9 | |
| 20260905200041 | 60 | 270 | 0.0 | 1.0 | 0.00 | 0.24 | 0.24 | 99 | 1014.8 |
| 20260905195049 | 60 | 180 | 0.0 | 1.0 | 0.00 | 0.24 | 0.24 | 99 | 1014.8 |
| 20260905194057 | 61 | 180 | 0.0 | 1.0 | 0.00 | 0.24 | 0.24 | 99 | 1014.6 |
| 20260905193144 | 61 | 225 | 0.0 | 1.0 | 0.00 | 0.24 | 0.24 | 99 | 1014.4 |
| 20260905192111 | 61 | 0.0 | 0.0 | 0.00 | 0.24 | 0.24 | 99 | 1014.1 | |
| 20260905191127 | 61 | 0.0 | 0.0 | 0.00 | 0.24 | 0.24 | 99 | 1014.1 | |
| 20260905190042 | 61 | 225 | 0.0 | 1.0 | 0.00 | 0.24 | 0.24 | 99 | 1014.0 |
| 20260905185029 | 61 | 180 | 0.0 | 1.0 | 0.00 | 0.24 | 0.24 | 99 | 1013.8 |
| 20260905184038 | 61 | 225 | 0.0 | 2.0 | 0.00 | 0.24 | 0.24 | 99 | 1013.8 |
| 20260905183046 | 62 | 0.0 | 0.0 | 0.00 | 0.24 | 0.24 | 99 | 1013.6 | |
| 20260905182054 | 62 | 0.0 | 0.0 | 0.00 | 0.24 | 0.24 | 99 | 1013.5 | |
| 20260905181102 | 62 | 0.0 | 0.0 | 0.00 | 0.24 | 0.24 | 99 | 1013.4 | |
| 20260905180109 | 62 | 0.0 | 0.0 | 0.00 | 0.24 | 0.24 | 98 | 1013.1 | |
| 20260905175117 | 62 | 180 | 0.0 | 0.0 | 0.00 | 0.24 | 0.24 | 98 | 1013.1 |
| 20260905174019 | 63 | 0.0 | 0.0 | 0.00 | 0.24 | 0.24 | 98 | 1012.6 | |
| 20260905173027 | 63 | 0.0 | 0.0 | 0.00 | 0.24 | 0.24 | 95 | 1012.7 | |
| 20260905172035 | 63 | 0.0 | 0.0 | 0.00 | 0.24 | 0.24 | 95 | 1012.6 | |
| 20260905171043 | 64 | 0.0 | 0.0 | 0.00 | 0.24 | 0.24 | 94 | 1012.4 | |
| 20260905170050 | 64 | 0.0 | 0.0 | 0.00 | 0.24 | 0.24 | 94 | 1012.2 | |
| 20260905165100 | 64 | 213 | 0.0 | 2.0 | 0.00 | 0.24 | 0.24 | 93 | 1012.1 |
| 20260905164106 | 65 | 0.0 | 0.0 | 0.00 | 0.24 | 0.24 | 92 | 1012.0 | |
| 20260905163121 | 65 | 194 | 0.0 | 1.0 | 0.00 | 0.24 | 0.24 | 92 | 1011.9 |
| 20260905162016 | 66 | 0.0 | 0.0 | 0.00 | 0.24 | 0.24 | 92 | 1012.1 | |
| 20260905161024 | 67 | 0.0 | 0.0 | 0.00 | 0.24 | 0.24 | 92 | 1011.8 | |
| 20260905155040 | 68 | 45 | 0.0 | 2.0 | 0.00 | 0.24 | 0.24 | 91 | 1011.8 |
| 20260905154048 | 68 | 45 | 0.0 | 1.0 | 0.00 | 0.24 | 0.24 | 91 | 1011.7 |
| 20260905153056 | 67 | 225 | 0.0 | 3.0 | 0.00 | 0.24 | 0.24 | 92 | 1011.6 |
| 20260905152103 | 67 | 236 | 1.0 | 2.0 | 0.00 | 0.24 | 0.24 | 90 | 1012.0 |
| 20260905151111 | 67 | 0.0 | 0.0 | 0.00 | 0.24 | 0.24 | 89 | 1012.1 | |
| 20260905150351 | 68 | 0.0 | 0.0 | 0.00 | 0.24 | 0.24 | 89 | 1012.0 | |
| 20260905145037 | 69 | 270 | 0.0 | 1.0 | 0.00 | 0.24 | 0.24 | 93 | 1011.9 |
| 20260905144051 | 67 | 270 | 0.0 | 1.0 | 0.00 | 0.24 | 0.24 | 94 | 1012.1 |
| 20260905143038 | 66 | 315 | 0.0 | 1.0 | 0.00 | 0.24 | 0.24 | 95 | 1011.9 |
| 20260905142045 | 65 | 300 | 0.0 | 1.0 | 0.00 | 0.24 | 0.24 | 95 | 1012.4 |
| 20260905141055 | 65 | 180 | 0.0 | 1.0 | 0.00 | 0.24 | 0.24 | 95 | 1012.5 |
| 20260905135439 | 64 | 214 | 0.0 | 1.0 | 0.00 | 0.24 | 0.24 | 94 | 1012.3 |
| 20260905134518 | 64 | 90 | 1.0 | 3.0 | 0.03 | 0.24 | 0.24 | 92 | 1012.1 |
| 20260905133019 | 64 | 209 | 2.0 | 4.0 | 0.08 | 0.24 | 0.24 | 91 | 1012.2 |
| 20260905132027 | 64 | 225 | 0.0 | 2.0 | 0.15 | 0.24 | 0.24 | 91 | 1012.2 |
| 20260905131321 | 64 | 199 | 2.0 | 6.0 | 0.22 | 0.24 | 0.24 | 91 | 1012.0 |
| 20260905130043 | 64 | 277 | 1.0 | 3.0 | 0.23 | 0.24 | 0.24 | 90 | 1012.7 |
| 20260905125521 | 64 | 194 | 1.0 | 4.0 | 0.23 | 0.24 | 0.24 | 86 | 1013.1 |
| 20260905123121 | 65 | 224 | 0.0 | 2.0 | 0.15 | 0.16 | 0.16 | 79 | 1013.6 |
| 20260905122519 | 67 | 90 | 0.0 | 1.0 | 0.08 | 0.09 | 0.09 | 74 | 1013.1 |
| 20260905120024 | 73 | 0 | 0.0 | 1.0 | 0.00 | 0.01 | 0.01 | 55 | 1012.1 |
| 20260905115033 | 75 | 315 | 0.0 | 1.0 | 0.00 | 0.01 | 0.01 | 48 | 1012.2 |
| 20260905114040 | 75 | 292 | 0.0 | 1.0 | 0.00 | 0.01 | 0.01 | 49 | 1011.9 |
| 20260905113048 | 75 | 201 | 4.0 | 6.0 | 0.00 | 0.01 | 0.01 | 49 | 1011.8 |
| 20260905112056 | 74 | 315 | 0.0 | 1.0 | 0.00 | 0.01 | 0.01 | 51 | 1012.0 |
| 20260905111103 | 74 | 337 | 0.0 | 1.0 | 0.00 | 0.01 | 0.01 | 52 | 1012.0 |
| 20260905110111 | 74 | 348 | 0.0 | 1.0 | 0.00 | 0.01 | 0.01 | 52 | 1011.8 |
| 20260905105119 | 74 | 11 | 0.0 | 2.0 | 0.00 | 0.01 | 0.01 | 51 | 1011.9 |
| 20260905104021 | 74 | 337 | 0.0 | 2.0 | 0.00 | 0.01 | 0.01 | 50 | 1011.7 |
| 20260905103029 | 75 | 283 | 0.0 | 2.0 | 0.00 | 0.01 | 0.01 | 48 | 1011.6 |
| 20260905102038 | 75 | 196 | 3.0 | 7.0 | 0.00 | 0.01 | 0.01 | 46 | 1011.6 |
| 20260905101045 | 76 | 225 | 3.0 | 6.0 | 0.00 | 0.01 | 0.01 | 44 | 1011.5 |
| 20260905100053 | 77 | 318 | 2.0 | 3.0 | 0.00 | 0.01 | 0.01 | 43 | 1011.5 |
| 20260905095101 | 75 | 236 | 3.0 | 7.0 | 0.00 | 0.01 | 0.01 | 46 | 1011.5 |
| 20260905094115 | 74 | 271 | 4.0 | 6.0 | 0.00 | 0.01 | 0.01 | 47 | 1011.7 |
| 20260905093117 | 75 | 293 | 3.0 | 5.0 | 0.00 | 0.01 | 0.01 | 50 | 1011.9 |
| 20260905092019 | 73 | 344 | 2.0 | 4.0 | 0.00 | 0.01 | 0.01 | 51 | 1011.9 |
| 20260905091026 | 73 | 321 | 2.0 | 4.0 | 0.00 | 0.01 | 0.01 | 54 | 1011.6 |
| 20260905090035 | 74 | 270 | 0.0 | 3.0 | 0.00 | 0.01 | 0.01 | 57 | 1011.5 |
| 20260905085042 | 75 | 296 | 2.0 | 5.0 | 0.00 | 0.01 | 0.01 | 54 | 1011.4 |
| 20260905084051 | 74 | 276 | 3.0 | 6.0 | 0.00 | 0.01 | 0.01 | 56 | 1011.2 |
| 20260905083058 | 74 | 240 | 3.0 | 7.0 | 0.00 | 0.01 | 0.01 | 57 | 1011.0 |
| 20260905082106 | 75 | 291 | 3.0 | 8.0 | 0.00 | 0.01 | 0.01 | 59 | 1010.9 |
| 20260905081115 | 74 | 298 | 3.0 | 7.0 | 0.00 | 0.01 | 0.01 | 63 | 1010.7 |
| 20260905080016 | 74 | 270 | 1.0 | 3.0 | 0.00 | 0.01 | 0.01 | 64 | 1010.4 |
| 20260905075024 | 74 | 297 | 3.0 | 6.0 | 0.00 | 0.01 | 0.01 | 66 | 1010.3 |
| 20260905074032 | 73 | 338 | 1.0 | 6.0 | 0.00 | 0.01 | 0.01 | 69 | 1010.0 |
| 20260905073105 | 71 | 305 | 2.0 | 6.0 | 0.00 | 0.01 | 0.01 | 77 | 1009.7 |
| 20260905072053 | 71 | 53 | 1.0 | 2.0 | 0.00 | 0.01 | 0.01 | 80 | 1008.8 |
| 20260905071055 | 70 | 78 | 0.0 | 1.0 | 0.00 | 0.01 | 0.01 | 81 | 1008.8 |
| 20260905065111 | 66 | 352 | 1.0 | 2.0 | 0.00 | 0.01 | 0.01 | 91 | 1008.7 |
| 20260905064120 | 65 | 0.0 | 0.0 | 0.00 | 0.01 | 0.01 | 94 | 1008.3 | |
| 20260905063021 | 64 | 0 | 0.0 | 1.0 | 0.00 | 0.01 | 0.01 | 96 | 1008.4 |
| 20260905062029 | 63 | 31 | 0.0 | 1.0 | 0.00 | 0.01 | 0.01 | 97 | 1008.2 |
| 20260905061037 | 62 | 0.0 | 0.0 | 0.00 | 0.01 | 0.01 | 98 | 1008.0 | |
| 20260905060044 | 61 | 0.0 | 0.0 | 0.00 | 0.01 | 0.01 | 98 | 1008.0 | |
| 20260905055052 | 61 | 0.0 | 0.0 | 0.00 | 0.01 | 0.01 | 98 | 1008.1 | |
| 20260905054135 | 60 | 180 | 0.0 | 1.0 | 0.00 | 0.01 | 0.01 | 98 | 1008.1 |
| 20260905053107 | 60 | 0.0 | 0.0 | 0.00 | 0.01 | 0.01 | 97 | 1007.8 | |
| 20260905052116 | 60 | 0.0 | 0.0 | 0.00 | 0.01 | 0.01 | 97 | 1007.7 | |
| 20260905051017 | 60 | 210 | 0.0 | 1.0 | 0.00 | 0.01 | 0.01 | 96 | 1007.6 |
| 20260905050025 | 60 | 0.0 | 0.0 | 0.00 | 0.01 | 0.01 | 96 | 1007.6 | |
| 20260905045033 | 60 | 0.0 | 0.0 | 0.00 | 0.01 | 0.01 | 96 | 1007.3 | |
| 20260905044041 | 60 | 0.0 | 0.0 | 0.00 | 0.01 | 0.01 | 96 | 1007.1 | |
| 20260905043104 | 60 | 0.0 | 0.0 | 0.00 | 0.01 | 0.01 | 95 | 1006.7 | |
| 20260905042057 | 60 | 0.0 | 0.0 | 0.00 | 0.01 | 0.01 | 95 | 1006.9 | |
| 20260905041106 | 60 | 0.0 | 0.0 | 0.00 | 0.01 | 0.01 | 95 | 1006.7 | |
| 20260905040114 | 60 | 0.0 | 0.0 | 0.00 | 0.01 | 0.01 | 94 | 1006.6 | |
| 20260905035015 | 60 | 0.0 | 0.0 | 0.00 | 0.01 | 0.01 | 94 | 1006.6 | |
| 20260905034026 | 60 | 0.0 | 0.0 | 0.00 | 0.01 | 0.01 | 94 | 1006.3 | |
| 20260905033031 | 60 | 0.0 | 0.0 | 0.00 | 0.01 | 0.01 | 94 | 1006.3 | |
| 20260905032039 | 60 | 0.0 | 0.0 | 0.00 | 0.01 | 0.01 | 94 | 1006.3 | |
| 20260905031047 | 60 | 0.0 | 0.0 | 0.00 | 0.01 | 0.01 | 94 | 1006.2 | |
| 20260905030054 | 60 | 225 | 0.0 | 1.0 | 0.00 | 0.01 | 0.01 | 93 | 1006.2 |
| 20260905025113 | 60 | 0.0 | 0.0 | 0.00 | 0.01 | 0.01 | 93 | 1006.2 | |
| 20260905021027 | 61 | 0.0 | 0.0 | 0.01 | 0.01 | 0.01 | 92 | 1006.1 | |
| 20260905020035 | 61 | 0.0 | 0.0 | 0.01 | 0.01 | 0.01 | 92 | 1006.2 | |
| 20260905015043 | 61 | 45 | 0.0 | 1.0 | 0.01 | 0.01 | 0.01 | 91 | 1006.2 |